Stanford in the Vale, United Kingdom
Current Conditions -  °F | °C
As of 5:50 PM on Thursday 23 Oct 2014 (Local Time) from EGVN Reporting Station
Drizzle Drizzle  
Wind Chill: 15°   Ceiling: 1800
Heat Index: 15°   Visibility: 6mi
Dew Point: 13°   Wind: 8mph
Humidity: 88%   Direction: 200°SSW
Pressure: 30"   Gusts: NA
Location:  51.64°N, 1.51°W
Report Text: EGVN 231650Z 20007KT 9999 -DZ SCT014 BKN018 BKN032 15/13 Q1016 GRN NOSIG
Loading
Personal Weather Stations






























Interactive Weather Map
Tropical Storm Tracking
New forecast layout! Learn more

10-Day Weather Forecast

Advertisements
Track Severe Weather on mobile